createdAt,value
2023-03-27T00:02:26.341Z,10.00
2023-03-27T00:04:54.647Z,10.10
2023-03-27T00:07:22.782Z,10.10
2023-03-27T00:09:50.562Z,11.00
2023-03-27T00:12:18.227Z,10.80
2023-03-27T00:14:46.281Z,10.60
2023-03-27T00:17:13.918Z,8.50
2023-03-27T00:19:42.432Z,9.10
2023-03-27T00:22:10.830Z,10.10
2023-03-27T00:24:38.441Z,10.10
2023-03-27T00:27:06.768Z,10.70
2023-03-27T00:29:34.816Z,12.50
2023-03-27T00:32:02.543Z,11.00
2023-03-27T00:34:31.332Z,12.40
2023-03-27T00:36:59.177Z,10.60
2023-03-27T00:39:28.004Z,11.50
2023-03-27T00:41:56.285Z,9.70
2023-03-27T00:44:34.502Z,9.80
2023-03-27T00:47:04.465Z,11.70
2023-03-27T00:49:37.466Z,11.00
2023-03-27T00:52:07.118Z,10.80
2023-03-27T00:54:38.931Z,10.20
2023-03-27T00:57:13.495Z,9.60
2023-03-27T00:59:45.119Z,10.40
2023-03-27T01:02:14.629Z,10.60
2023-03-27T01:04:44.657Z,9.70
2023-03-27T01:07:13.143Z,10.10
2023-03-27T01:09:41.690Z,12.00
2023-03-27T01:12:38.903Z,11.70
2023-03-27T01:15:37.947Z,9.40
2023-03-27T01:18:38.819Z,10.20
2023-03-27T01:21:44.041Z,8.70
2023-03-27T01:25:11.628Z,8.90
2023-03-27T01:27:58.602Z,11.10
2023-03-27T01:30:39.993Z,9.30
2023-03-27T01:33:56.245Z,9.00
2023-03-27T01:37:06.505Z,8.60
2023-03-27T01:39:53.798Z,8.50
2023-03-27T01:42:32.691Z,11.70
2023-03-27T01:45:16.039Z,8.10
2023-03-27T01:47:51.784Z,9.60
2023-03-27T01:50:34.412Z,9.70
2023-03-27T01:53:11.082Z,9.50
2023-03-27T01:55:45.595Z,10.20
2023-03-27T01:58:24.559Z,10.20
2023-03-27T02:00:57.472Z,10.00
2023-03-27T02:03:33.933Z,9.90
2023-03-27T02:06:19.452Z,9.60
2023-03-27T02:08:58.622Z,10.60
2023-03-27T02:11:34.296Z,10.00
2023-03-27T02:14:09.686Z,10.40
2023-03-27T02:16:46.371Z,11.30
2023-03-27T02:19:30.200Z,10.90
2023-03-27T02:21:57.947Z,10.20
2023-03-27T02:24:25.684Z,10.40
2023-03-27T02:27:12.843Z,10.80
2023-03-27T02:30:15.730Z,9.90
2023-03-27T02:33:27.530Z,10.10
2023-03-27T02:36:49.123Z,10.60
2023-03-27T02:40:01.393Z,11.00
2023-03-27T02:43:04.510Z,11.00
2023-03-27T02:45:57.861Z,10.80
2023-03-27T02:48:38.986Z,11.30
2023-03-27T02:51:16.233Z,10.60
2023-03-27T02:53:57.864Z,9.90
2023-03-27T02:56:32.112Z,10.10
2023-03-27T02:59:08.898Z,11.00
2023-03-27T03:01:39.441Z,11.80
2023-03-27T03:04:42.109Z,10.90
2023-03-27T03:07:11.558Z,11.90
2023-03-27T03:09:40.554Z,12.80
2023-03-27T03:12:09.860Z,12.20
2023-03-27T03:14:44.256Z,11.80
2023-03-27T03:17:14.016Z,13.10
2023-03-27T03:19:42.038Z,14.70
2023-03-27T03:22:09.978Z,12.50
2023-03-27T03:24:41.987Z,14.20
2023-03-27T03:27:11.011Z,14.10
2023-03-27T03:29:38.569Z,14.30
2023-03-27T03:32:07.705Z,13.60
2023-03-27T03:34:35.296Z,11.20
2023-03-27T03:37:03.350Z,10.60
2023-03-27T03:39:31.237Z,11.00
2023-03-27T03:41:58.831Z,10.20
2023-03-27T03:44:26.407Z,9.30
2023-03-27T03:46:54.245Z,8.90
2023-03-27T03:49:22.277Z,8.10
2023-03-27T03:52:04.437Z,8.30
2023-03-27T03:54:33.051Z,11.90
2023-03-27T03:57:00.876Z,10.00
2023-03-27T03:59:28.795Z,10.40
2023-03-27T04:01:56.539Z,10.70
2023-03-27T04:04:24.226Z,9.50
2023-03-27T04:06:53.160Z,9.40
2023-03-27T04:09:20.769Z,8.70
2023-03-27T04:11:48.424Z,9.40
2023-03-27T04:14:16.424Z,9.60
2023-03-27T04:16:44.397Z,10.30
2023-03-27T04:19:12.059Z,10.20
2023-03-27T04:21:39.778Z,9.70
2023-03-27T04:24:08.410Z,10.50
2023-03-27T04:26:36.105Z,11.70
2023-03-27T04:29:04.140Z,10.90
2023-03-27T04:31:34.612Z,12.60
2023-03-27T04:34:03.129Z,12.10
2023-03-27T04:36:31.365Z,10.80
2023-03-27T04:38:59.822Z,22.70
2023-03-27T04:41:29.768Z,14.00
2023-03-27T04:43:57.418Z,9.70
2023-03-27T04:46:25.071Z,9.70
2023-03-27T04:48:52.854Z,9.40
2023-03-27T04:51:20.509Z,9.10
2023-03-27T04:53:48.243Z,8.20
2023-03-27T04:56:16.202Z,9.30
2023-03-27T04:58:46.686Z,7.90
2023-03-27T05:01:14.468Z,6.10
2023-03-27T05:03:42.193Z,7.70
2023-03-27T05:06:10.207Z,8.00
2023-03-27T05:08:37.945Z,7.10
2023-03-27T05:11:05.804Z,6.60
2023-03-27T05:13:34.259Z,5.60
2023-03-27T05:16:02.672Z,5.90
2023-03-27T05:18:30.818Z,6.20
2023-03-27T05:20:59.357Z,5.40
2023-03-27T05:23:27.453Z,6.20
2023-03-27T05:25:59.264Z,6.10
2023-03-27T05:28:29.569Z,6.50
2023-03-27T05:30:58.150Z,5.40
2023-03-27T05:33:26.559Z,5.50
2023-03-27T05:35:54.319Z,5.70
2023-03-27T05:38:22.740Z,4.50
2023-03-27T05:40:52.275Z,5.90
2023-03-27T05:43:20.008Z,4.90
2023-03-27T05:45:47.761Z,6.60
2023-03-27T05:48:15.803Z,6.60
2023-03-27T05:50:43.507Z,10.30
2023-03-27T05:53:11.514Z,10.90
2023-03-27T05:55:39.636Z,7.50
2023-03-27T05:58:10.025Z,7.10
2023-03-27T06:00:42.242Z,8.90
2023-03-27T06:03:14.348Z,9.30
2023-03-27T06:05:42.811Z,8.10
2023-03-27T06:08:11.723Z,6.50
2023-03-27T06:10:43.324Z,9.20
2023-03-27T06:13:13.764Z,9.50
2023-03-27T06:15:43.846Z,10.60
2023-03-27T06:18:11.904Z,7.70
2023-03-27T06:20:40.300Z,13.30
2023-03-27T06:23:09.399Z,10.00
2023-03-27T06:25:39.419Z,9.50
2023-03-27T06:28:09.466Z,10.10
2023-03-27T06:30:38.953Z,9.00
2023-03-27T06:33:08.107Z,8.80
2023-03-27T06:35:36.900Z,9.00
2023-03-27T06:38:06.506Z,12.70
2023-03-27T06:40:35.488Z,11.80
2023-03-27T06:43:06.877Z,14.70
2023-03-27T06:45:35.733Z,16.70
2023-03-27T06:48:14.580Z,14.60
2023-03-27T06:50:50.520Z,14.10
2023-03-27T06:53:27.095Z,12.40
2023-03-27T06:55:56.854Z,13.10
2023-03-27T06:58:25.508Z,9.90
2023-03-27T07:00:53.360Z,12.30
2023-03-27T07:03:22.885Z,9.20
2023-03-27T07:05:50.882Z,11.40
2023-03-27T07:08:24.139Z,11.10
2023-03-27T07:13:25.686Z,8.70
2023-03-27T07:15:54.899Z,7.40
2023-03-27T07:18:23.115Z,4.40
2023-03-27T07:20:51.375Z,5.60
2023-03-27T07:23:19.118Z,7.50
2023-03-27T07:25:49.952Z,7.50
2023-03-27T07:28:18.648Z,5.90
2023-03-27T07:30:46.420Z,5.50
2023-03-27T07:33:15.077Z,4.50
2023-03-27T07:35:48.628Z,4.30
2023-03-27T07:38:17.395Z,5.60
2023-03-27T07:40:46.581Z,3.70
2023-03-27T07:43:14.664Z,4.20
2023-03-27T07:45:42.396Z,4.80
2023-03-27T07:48:17.366Z,3.20
2023-03-27T07:50:45.397Z,2.60
2023-03-27T07:53:32.656Z,2.40
2023-03-27T07:56:01.475Z,1.90
2023-03-27T07:58:29.266Z,3.70
2023-03-27T08:01:02.601Z,3.70
2023-03-27T08:03:31.820Z,5.30
2023-03-27T08:06:01.169Z,5.40
2023-03-27T08:08:29.384Z,5.50
2023-03-27T08:10:59.820Z,5.40
2023-03-27T08:13:28.096Z,7.80
2023-03-27T08:16:15.718Z,5.70
2023-03-27T08:18:46.266Z,6.60
2023-03-27T08:21:13.952Z,7.40
2023-03-27T08:23:41.821Z,8.10
2023-03-27T08:26:09.546Z,7.30
2023-03-27T08:28:38.091Z,6.50
2023-03-27T08:31:15.957Z,6.50
2023-03-27T08:33:43.716Z,5.90
2023-03-27T08:36:14.408Z,3.90
2023-03-27T08:38:43.222Z,5.50
2023-03-27T08:41:28.221Z,5.10
2023-03-27T08:43:59.435Z,5.70
2023-03-27T08:46:36.780Z,6.40
2023-03-27T08:49:15.501Z,6.00
2023-03-27T08:51:58.406Z,4.60
2023-03-27T08:54:32.616Z,6.80
2023-03-27T08:57:02.769Z,4.50
2023-03-27T08:59:31.719Z,6.70
2023-03-27T09:02:57.030Z,4.90
2023-03-27T09:06:22.589Z,5.60
2023-03-27T09:09:17.141Z,5.60
2023-03-27T09:12:10.898Z,5.20
2023-03-27T09:14:48.567Z,4.40
2023-03-27T09:17:25.149Z,3.30
2023-03-27T09:20:17.929Z,4.10
2023-03-27T09:22:57.042Z,3.80
2023-03-27T09:25:33.628Z,3.20
2023-03-27T09:28:03.499Z,3.40
2023-03-27T09:30:33.879Z,3.30
2023-03-27T09:33:05.797Z,4.10
2023-03-27T09:35:35.623Z,3.90
2023-03-27T09:38:23.130Z,4.40
2023-03-27T09:41:17.242Z,4.90
2023-03-27T09:44:08.954Z,4.30
2023-03-27T09:46:42.165Z,5.20
2023-03-27T09:49:17.884Z,4.60
2023-03-27T09:51:50.367Z,4.30
2023-03-27T09:54:22.395Z,4.00
2023-03-27T09:57:10.862Z,4.30
2023-03-27T09:59:58.730Z,4.30
2023-03-27T10:02:31.046Z,4.00
2023-03-27T10:05:04.425Z,2.80
2023-03-27T10:07:32.806Z,3.50
2023-03-27T10:10:17.561Z,3.40
2023-03-27T10:12:54.181Z,5.00
2023-03-27T10:15:38.934Z,3.10
2023-03-27T10:18:29.867Z,4.40
2023-03-27T10:21:02.396Z,3.00
2023-03-27T10:23:46.193Z,2.90
2023-03-27T10:26:21.163Z,3.20
2023-03-27T10:28:54.107Z,3.00
2023-03-27T10:31:51.993Z,2.10
2023-03-27T10:34:34.683Z,2.20
2023-03-27T10:37:19.482Z,2.20
2023-03-27T10:39:48.037Z,2.10
2023-03-27T10:42:18.186Z,3.00
2023-03-27T10:44:49.121Z,2.60
2023-03-27T10:47:23.365Z,3.50
2023-03-27T10:50:33.695Z,3.00
2023-03-27T10:53:19.316Z,1.90
2023-03-27T10:56:42.740Z,2.00
2023-03-27T10:59:41.785Z,1.80
2023-03-27T11:02:29.061Z,1.20
2023-03-27T11:05:08.212Z,2.70
2023-03-27T11:08:03.875Z,2.00
2023-03-27T11:10:39.705Z,1.00
2023-03-27T11:13:20.852Z,2.00
2023-03-27T11:16:04.473Z,2.30
2023-03-27T11:18:43.067Z,2.80
2023-03-27T11:21:34.414Z,2.00
2023-03-27T11:24:11.113Z,2.50
2023-03-27T11:26:54.499Z,2.40
2023-03-27T11:29:30.635Z,2.00
2023-03-27T11:32:21.503Z,3.20
2023-03-27T11:34:58.663Z,2.80
2023-03-27T11:38:04.748Z,2.50
2023-03-27T11:40:42.108Z,2.60
2023-03-27T11:43:13.368Z,2.50
2023-03-27T11:45:51.948Z,2.50
2023-03-27T11:49:00.963Z,3.60
2023-03-27T11:52:01.776Z,1.80
2023-03-27T11:54:58.578Z,2.40
2023-03-27T11:57:27.043Z,2.10
2023-03-27T12:00:16.474Z,2.70
2023-03-27T12:02:53.577Z,2.00
2023-03-27T12:05:47.025Z,3.80
2023-03-27T12:08:49.966Z,2.50
2023-03-27T12:11:21.876Z,3.00
2023-03-27T12:14:17.515Z,4.20
2023-03-27T12:17:19.717Z,3.10
2023-03-27T12:20:21.016Z,3.50
2023-03-27T12:23:43.345Z,3.80
2023-03-27T12:26:35.976Z,4.00
2023-03-27T12:29:47.767Z,8.50
2023-03-27T12:33:13.857Z,11.40
2023-03-27T12:35:51.873Z,6.20
2023-03-27T12:38:33.528Z,4.20
2023-03-27T12:41:13.746Z,3.20
2023-03-27T12:43:47.497Z,3.80
2023-03-27T12:46:39.095Z,3.40
2023-03-27T12:49:12.107Z,3.30
2023-03-27T12:52:04.947Z,2.50
2023-03-27T12:54:42.547Z,2.70
2023-03-27T12:57:21.599Z,2.30
2023-03-27T12:59:59.283Z,2.10
2023-03-27T13:02:55.153Z,2.00
2023-03-27T13:05:54.224Z,1.70
2023-03-27T13:09:00.959Z,2.40
2023-03-27T13:11:43.296Z,2.30
2023-03-27T13:15:13.096Z,3.70
2023-03-27T13:18:14.657Z,3.00
2023-03-27T13:21:14.930Z,2.70
2023-03-27T13:24:13.327Z,2.60
2023-03-27T13:27:14.142Z,2.40
2023-03-27T13:29:42.608Z,2.50
2023-03-27T13:32:31.546Z,2.30
2023-03-27T13:35:31.588Z,3.50
2023-03-27T13:38:00.772Z,2.30
2023-03-27T13:40:34.864Z,1.90
2023-03-27T13:43:23.113Z,2.80
2023-03-27T13:45:57.468Z,4.20
2023-03-27T13:48:50.433Z,8.80
2023-03-27T13:52:06.985Z,8.00
2023-03-27T13:55:13.458Z,5.80
2023-03-27T13:58:05.923Z,2.10
2023-03-27T14:00:42.765Z,2.60
2023-03-27T14:03:35.751Z,2.50
2023-03-27T14:06:43.956Z,2.90
2023-03-27T14:09:42.730Z,3.50
2023-03-27T14:13:03.991Z,4.10
2023-03-27T14:15:55.804Z,3.20
2023-03-27T14:19:03.314Z,3.00
2023-03-27T14:22:01.320Z,3.00
2023-03-27T14:24:43.526Z,2.90
2023-03-27T14:27:19.302Z,2.60
2023-03-27T14:29:49.578Z,3.60
2023-03-27T14:32:18.155Z,3.60
2023-03-27T14:35:02.498Z,3.70
2023-03-27T14:37:39.383Z,2.60
2023-03-27T14:40:27.238Z,3.10
2023-03-27T14:42:57.928Z,2.50
2023-03-27T14:45:30.186Z,1.90
2023-03-27T14:48:05.034Z,2.20
2023-03-27T14:50:34.513Z,2.80
2023-03-27T14:53:10.356Z,4.00
2023-03-27T14:55:40.296Z,4.60
2023-03-27T14:58:18.956Z,2.20
2023-03-27T15:00:54.501Z,4.90
2023-03-27T15:03:27.397Z,5.50
2023-03-27T15:05:57.587Z,4.50
2023-03-27T15:08:28.843Z,3.80
2023-03-27T15:10:56.879Z,2.70
2023-03-27T15:13:26.288Z,1.80
2023-03-27T15:16:01.053Z,2.30
2023-03-27T15:18:36.113Z,2.00
2023-03-27T15:21:13.629Z,2.30
2023-03-27T15:23:58.995Z,1.40
2023-03-27T15:26:35.141Z,1.10
2023-03-27T15:29:27.341Z,2.10
2023-03-27T15:31:59.800Z,1.90
2023-03-27T15:34:47.984Z,3.20
2023-03-27T15:37:25.379Z,2.10
2023-03-27T15:40:13.608Z,2.10
2023-03-27T15:43:07.790Z,2.40
2023-03-27T15:46:00.049Z,2.10
2023-03-27T15:48:42.947Z,2.70
2023-03-27T15:51:31.269Z,1.90
2023-03-27T15:53:59.465Z,3.40
2023-03-27T15:56:43.864Z,2.60
2023-03-27T15:59:16.089Z,3.10
2023-03-27T16:01:54.142Z,3.30
2023-03-27T16:04:36.379Z,2.40
2023-03-27T16:07:13.691Z,2.10
2023-03-27T16:09:52.604Z,2.70
2023-03-27T16:12:30.921Z,2.10
2023-03-27T16:15:00.363Z,1.90
2023-03-27T16:17:37.761Z,1.70
2023-03-27T16:20:12.720Z,2.20
2023-03-27T16:22:40.560Z,1.50
2023-03-27T16:25:12.308Z,2.20
2023-03-27T16:27:58.656Z,1.50
2023-03-27T16:30:36.188Z,1.40
2023-03-27T16:33:15.768Z,1.50
2023-03-27T16:35:45.469Z,2.00
2023-03-27T16:38:14.174Z,2.80
2023-03-27T16:40:43.671Z,2.20
2023-03-27T16:43:11.416Z,1.90
2023-03-27T16:45:39.855Z,2.30
2023-03-27T16:48:08.390Z,5.20
2023-03-27T16:50:36.383Z,9.40
2023-03-27T16:53:04.220Z,4.10
2023-03-27T16:55:32.021Z,3.00
2023-03-27T16:57:59.702Z,2.80
2023-03-27T17:00:27.734Z,2.50
2023-03-27T17:02:55.542Z,3.10
2023-03-27T17:05:23.351Z,3.00
2023-03-27T17:07:51.283Z,3.20
2023-03-27T17:10:19.103Z,3.10
2023-03-27T17:12:46.725Z,2.90
2023-03-27T17:15:16.793Z,2.80
2023-03-27T17:17:45.895Z,2.60
2023-03-27T17:20:13.809Z,2.40
2023-03-27T17:22:41.951Z,3.80
2023-03-27T17:25:10.342Z,4.00
2023-03-27T17:27:38.654Z,2.30
2023-03-27T17:30:07.712Z,2.90
2023-03-27T17:32:35.374Z,2.20
2023-03-27T17:35:04.550Z,2.80
2023-03-27T17:37:36.090Z,3.90
2023-03-27T17:40:09.858Z,3.60
2023-03-27T17:42:38.490Z,3.30
2023-03-27T17:45:07.166Z,3.90
2023-03-27T17:47:35.460Z,3.60
2023-03-27T17:50:04.584Z,3.80
2023-03-27T17:52:33.719Z,4.80
2023-03-27T17:55:01.542Z,8.60
2023-03-27T17:57:29.642Z,9.20
2023-03-27T17:59:57.268Z,10.40
2023-03-27T18:02:25.429Z,8.60
2023-03-27T18:04:53.236Z,8.40
2023-03-27T18:07:23.340Z,7.50
2023-03-27T18:09:52.445Z,9.50
2023-03-27T18:12:21.133Z,12.20
2023-03-27T18:14:48.910Z,15.30
2023-03-27T18:17:20.806Z,15.10
2023-03-27T18:19:48.586Z,14.00
2023-03-27T18:22:16.551Z,15.80
2023-03-27T18:24:44.674Z,13.50
2023-03-27T18:27:13.513Z,14.40
2023-03-27T18:29:41.444Z,17.90
2023-03-27T18:32:09.281Z,15.50
2023-03-27T18:34:37.186Z,14.20
2023-03-27T18:37:05.225Z,13.80
2023-03-27T18:39:37.330Z,14.40
2023-03-27T18:42:05.384Z,17.20
2023-03-27T18:44:33.303Z,12.20
2023-03-27T18:47:01.055Z,14.70
2023-03-27T18:49:28.635Z,13.00
2023-03-27T18:51:56.640Z,11.40
2023-03-27T18:54:24.549Z,10.30
2023-03-27T18:56:52.772Z,8.20
2023-03-27T18:59:20.896Z,12.90
2023-03-27T19:01:48.869Z,18.10
2023-03-27T19:04:17.309Z,17.20
2023-03-27T19:06:46.594Z,15.10
2023-03-27T19:09:15.020Z,17.00
2023-03-27T19:11:44.130Z,17.80
2023-03-27T19:14:12.343Z,15.20
2023-03-27T19:16:40.043Z,21.80
2023-03-27T19:19:07.864Z,17.10
2023-03-27T19:21:35.789Z,17.20
2023-03-27T19:24:03.676Z,13.70
2023-03-27T19:26:34.263Z,15.60
2023-03-27T19:29:02.020Z,12.50
2023-03-27T19:31:30.422Z,13.00
2023-03-27T19:33:58.287Z,11.50
2023-03-27T19:36:27.176Z,11.30
2023-03-27T19:38:54.858Z,9.90
2023-03-27T19:41:22.571Z,10.30
2023-03-27T19:43:50.493Z,12.00
2023-03-27T19:46:18.584Z,8.50
2023-03-27T19:48:48.966Z,8.00
2023-03-27T19:51:17.046Z,8.90
2023-03-27T19:53:44.775Z,7.30
2023-03-27T19:56:12.432Z,5.50
2023-03-27T19:58:40.317Z,6.10
2023-03-27T20:01:08.592Z,4.80
2023-03-27T20:03:38.491Z,3.80
2023-03-27T20:06:13.278Z,4.00
2023-03-27T20:08:42.487Z,4.40
2023-03-27T20:11:10.563Z,4.80
2023-03-27T20:13:52.905Z,5.40
2023-03-27T20:16:24.240Z,5.30
2023-03-27T20:19:12.303Z,7.50
2023-03-27T20:21:41.260Z,7.60
2023-03-27T20:24:12.282Z,8.80
2023-03-27T20:26:42.101Z,8.70
2023-03-27T20:29:15.010Z,7.30
2023-03-27T20:31:43.035Z,6.80
2023-03-27T20:34:11.294Z,5.40
2023-03-27T20:36:39.263Z,5.30
2023-03-27T20:39:08.909Z,4.10
2023-03-27T20:41:39.052Z,5.30
2023-03-27T20:44:16.145Z,5.30
2023-03-27T20:46:47.890Z,4.70
2023-03-27T20:51:57.820Z,3.90
2023-03-27T20:54:27.235Z,4.00
2023-03-27T20:56:55.483Z,3.80
2023-03-27T20:59:23.367Z,4.80
2023-03-27T21:01:51.096Z,3.60
2023-03-27T21:04:18.728Z,3.40
2023-03-27T21:06:46.334Z,2.70
2023-03-27T21:09:14.112Z,3.90
2023-03-27T21:11:41.970Z,3.20
2023-03-27T21:14:09.580Z,3.40
2023-03-27T21:16:37.830Z,3.20
2023-03-27T21:19:05.689Z,4.40
2023-03-27T21:21:33.329Z,4.50
2023-03-27T21:24:01.224Z,4.30
2023-03-27T21:26:28.895Z,3.90
2023-03-27T21:28:56.584Z,4.30
2023-03-27T21:31:24.283Z,4.70
2023-03-27T21:33:52.295Z,5.10
2023-03-27T21:36:20.142Z,4.50
2023-03-27T21:38:47.807Z,4.60
2023-03-27T21:41:17.298Z,4.50
2023-03-27T21:43:45.531Z,4.10
2023-03-27T21:46:13.595Z,4.90
2023-03-27T21:48:43.017Z,4.90
2023-03-27T21:51:11.155Z,4.60
2023-03-27T21:53:38.938Z,4.20
2023-03-27T21:56:08.000Z,4.20
2023-03-27T21:58:35.661Z,5.60
2023-03-27T22:01:04.157Z,5.70
2023-03-27T22:03:31.882Z,5.60
2023-03-27T22:06:12.463Z,4.90
2023-03-27T22:08:43.127Z,4.10
2023-03-27T22:11:12.655Z,3.50
2023-03-27T22:13:41.633Z,3.80
2023-03-27T22:16:12.610Z,5.90
2023-03-27T22:18:41.256Z,7.20
2023-03-27T22:21:17.291Z,8.10
2023-03-27T22:23:45.923Z,8.00
2023-03-27T22:26:13.679Z,6.10
2023-03-27T22:28:41.337Z,5.90
2023-03-27T22:31:09.268Z,6.40
2023-03-27T22:33:38.089Z,6.30
2023-03-27T22:36:09.472Z,6.70
2023-03-27T22:38:38.123Z,6.30
2023-03-27T22:41:08.076Z,7.80
2023-03-27T22:43:36.288Z,6.90
2023-03-27T22:46:16.508Z,7.50
2023-03-27T22:48:44.559Z,7.10
2023-03-27T22:51:13.829Z,5.40
2023-03-27T22:53:41.539Z,5.20
2023-03-27T22:56:09.738Z,5.20
2023-03-27T22:58:37.664Z,7.90
2023-03-27T23:01:06.763Z,5.40
2023-03-27T23:03:34.614Z,6.80
2023-03-27T23:06:02.914Z,6.20
2023-03-27T23:08:31.417Z,5.90
2023-03-27T23:11:04.158Z,4.50
2023-03-27T23:13:34.814Z,6.30
2023-03-27T23:16:02.702Z,5.10
2023-03-27T23:18:30.803Z,4.40
2023-03-27T23:21:02.452Z,4.40
2023-03-27T23:23:31.853Z,4.60
2023-03-27T23:26:00.189Z,4.50
2023-03-27T23:28:33.277Z,5.60
2023-03-27T23:31:06.103Z,5.00
2023-03-27T23:33:38.290Z,5.10
2023-03-27T23:36:14.232Z,4.80
2023-03-27T23:38:43.095Z,5.30
2023-03-27T23:41:16.092Z,3.90
2023-03-27T23:43:44.132Z,3.60
2023-03-27T23:46:13.041Z,4.10
2023-03-27T23:48:43.630Z,4.30
2023-03-27T23:51:14.571Z,4.20
2023-03-27T23:53:43.005Z,4.10
2023-03-27T23:56:11.867Z,4.10
2023-03-27T23:58:39.780Z,3.80
